VKG099 LGSA-EKRN
Flight info
| Callsign | VKG099 |
|---|---|
| Flight time | 3h 6m |
| Altitude | 34000 |
| Route | RUSOS UJ56 MIL UL617 MAKED DCT RAXAD DCT OSVIX DCT PARAK/N0449F360 DCT PATAK DCT BILNA DCT SOPAV DCT REGLI L617 KOLOB DCT ROE |
| Aircraft | A321/M-SDE2E3FGHIJ1RWXYZ/LB2 |
Departure
| Time | 2026-05-07 19:13 |
|---|---|
| Airport | Chania International Airport (LGSA) |
Arrival
| Time | 2026-05-07 22:19 |
|---|---|
| Airport | Bornholm Airport (EKRN) |
| Time | Latitude | Longitude | Altitude | Speed | Heading |
|---|---|---|---|---|---|
| 2026-05-07 18:51 | 35.53775 | 24.14338 | 498 ft | 0 kts | 21° |
| 2026-05-07 19:04 | 35.53763 | 24.14332 | 489 ft | 4 kts | 21° |
| 2026-05-07 19:04 | 35.53738 | 24.14320 | 498 ft | 3 kts | 22° |
| 2026-05-07 19:04 | 35.53718 | 24.14309 | 490 ft | 4 kts | 42° |
| 2026-05-07 19:05 | 35.53707 | 24.14284 | 498 ft | 4 kts | 96° |
| 2026-05-07 19:05 | 35.53710 | 24.14267 | 498 ft | 0 kts | 111° |
| 2026-05-07 19:07 | 35.53708 | 24.14272 | 490 ft | 4 kts | 111° |
| 2026-05-07 19:07 | 35.53686 | 24.14335 | 494 ft | 10 kts | 120° |
| 2026-05-07 19:08 | 35.53629 | 24.14355 | 492 ft | 8 kts | 195° |
| 2026-05-07 19:08 | 35.53582 | 24.14307 | 494 ft | 11 kts | 259° |
| 2026-05-07 19:08 | 35.53607 | 24.14197 | 494 ft | 16 kts | 292° |
| 2026-05-07 19:08 | 35.53655 | 24.14052 | 495 ft | 20 kts | 292° |
| 2026-05-07 19:09 | 35.53706 | 24.13895 | 495 ft | 19 kts | 291° |
| 2026-05-07 19:09 | 35.53755 | 24.13747 | 494 ft | 18 kts | 292° |
| 2026-05-07 19:09 | 35.53800 | 24.13609 | 490 ft | 17 kts | 292° |
| 2026-05-07 19:09 | 35.53801 | 24.13499 | 498 ft | 12 kts | 216° |
| 2026-05-07 19:10 | 35.53727 | 24.13461 | 494 ft | 11 kts | 202° |
| 2026-05-07 19:10 | 35.53678 | 24.13441 | 497 ft | 2 kts | 169° |
| 2026-05-07 19:10 | 35.53672 | 24.13448 | 498 ft | 0 kts | 133° |
| 2026-05-07 19:10 | 35.53666 | 24.13459 | 498 ft | 3 kts | 129° |
| 2026-05-07 19:11 | 35.53657 | 24.13482 | 491 ft | 2 kts | 111° |
| 2026-05-07 19:11 | 35.53655 | 24.13486 | 498 ft | 0 kts | 111° |
| 2026-05-07 19:12 | 35.53638 | 24.13540 | 499 ft | 18 kts | 111° |
| 2026-05-07 19:12 | 35.53502 | 24.13957 | 500 ft | 87 kts | 111° |
| 2026-05-07 19:12 | 35.53206 | 24.14870 | 488 ft | 141 kts | 111° |
| 2026-05-07 19:12 | 35.52788 | 24.16146 | 577 ft | 174 kts | 112° |
| 2026-05-07 19:13 | 35.52366 | 24.17462 | 1281 ft | 164 kts | 111° |
| 2026-05-07 19:13 | 35.51962 | 24.18766 | 1876 ft | 164 kts | 112° |
| 2026-05-07 19:13 | 35.51550 | 24.20084 | 2351 ft | 170 kts | 112° |
| 2026-05-07 19:13 | 35.51098 | 24.21524 | 2499 ft | 192 kts | 112° |
| 2026-05-07 19:14 | 35.50593 | 24.23134 | 2655 ft | 212 kts | 112° |
| 2026-05-07 19:14 | 35.50037 | 24.24904 | 2795 ft | 233 kts | 112° |
| 2026-05-07 19:14 | 35.49439 | 24.26803 | 3303 ft | 241 kts | 112° |
| 2026-05-07 19:14 | 35.48885 | 24.28769 | 3829 ft | 253 kts | 100° |
| 2026-05-07 19:15 | 35.49010 | 24.30962 | 4279 ft | 266 kts | 70° |
| 2026-05-07 19:15 | 35.50038 | 24.32853 | 4922 ft | 272 kts | 40° |
| 2026-05-07 19:15 | 35.51735 | 24.33874 | 5583 ft | 276 kts | 8° |
| 2026-05-07 19:15 | 35.53654 | 24.34029 | 6293 ft | 278 kts | 1° |
| 2026-05-07 19:16 | 35.55592 | 24.34097 | 7000 ft | 279 kts | 0° |
| 2026-05-07 19:16 | 35.57539 | 24.34161 | 7679 ft | 281 kts | 0° |
| 2026-05-07 19:16 | 35.59499 | 24.34226 | 8352 ft | 283 kts | 360° |
| 2026-05-07 19:16 | 35.61476 | 24.34295 | 9033 ft | 285 kts | 359° |
| 2026-05-07 19:17 | 35.63465 | 24.34371 | 9710 ft | 287 kts | 359° |
| 2026-05-07 19:17 | 35.65477 | 24.34451 | 10317 ft | 291 kts | 359° |
| 2026-05-07 19:17 | 35.67572 | 24.34531 | 10486 ft | 312 kts | 359° |
| 2026-05-07 19:17 | 35.69812 | 24.34614 | 10610 ft | 332 kts | 359° |
| 2026-05-07 19:18 | 35.72183 | 24.34704 | 10844 ft | 347 kts | 359° |
| 2026-05-07 19:18 | 35.74619 | 24.34801 | 11358 ft | 352 kts | 359° |
| 2026-05-07 19:18 | 35.77082 | 24.34903 | 11931 ft | 356 kts | 359° |
| 2026-05-07 19:18 | 35.79572 | 24.35007 | 12510 ft | 359 kts | 359° |
| 2026-05-07 19:19 | 35.82079 | 24.35108 | 13079 ft | 362 kts | 360° |
| 2026-05-07 19:19 | 35.84611 | 24.35208 | 13646 ft | 366 kts | 360° |
| 2026-05-07 19:19 | 35.87172 | 24.35310 | 14192 ft | 370 kts | 360° |
| 2026-05-07 19:19 | 35.89756 | 24.35414 | 14721 ft | 373 kts | 359° |
| 2026-05-07 19:20 | 35.92352 | 24.35518 | 15259 ft | 375 kts | 359° |
| 2026-05-07 19:20 | 35.94966 | 24.35621 | 15799 ft | 377 kts | 359° |
| 2026-05-07 19:20 | 35.97594 | 24.35727 | 16341 ft | 379 kts | 359° |
| 2026-05-07 19:20 | 36.00243 | 24.35833 | 16876 ft | 382 kts | 359° |
| 2026-05-07 19:21 | 36.02905 | 24.35938 | 17421 ft | 384 kts | 358° |
| 2026-05-07 19:21 | 36.05579 | 24.36042 | 17953 ft | 386 kts | 358° |
| 2026-05-07 19:21 | 36.08270 | 24.36146 | 18463 ft | 388 kts | 358° |
| 2026-05-07 19:21 | 36.10975 | 24.36251 | 18883 ft | 390 kts | 358° |
| 2026-05-07 19:22 | 36.13696 | 24.36357 | 19311 ft | 392 kts | 358° |
| 2026-05-07 19:22 | 36.16427 | 24.36469 | 19750 ft | 393 kts | 358° |
| 2026-05-07 19:22 | 36.19163 | 24.36580 | 20194 ft | 394 kts | 358° |
| 2026-05-07 19:22 | 36.21873 | 24.36939 | 20617 ft | 400 kts | 7° |
| 2026-05-07 19:23 | 36.24599 | 24.37696 | 21056 ft | 402 kts | 8° |
| 2026-05-07 19:23 | 36.27325 | 24.38470 | 21491 ft | 403 kts | 8° |
| 2026-05-07 19:23 | 36.30065 | 24.39252 | 21942 ft | 404 kts | 8° |
| 2026-05-07 19:23 | 36.32813 | 24.40032 | 22381 ft | 405 kts | 8° |
| 2026-05-07 19:24 | 36.35568 | 24.40810 | 22787 ft | 407 kts | 8° |
| 2026-05-07 19:24 | 36.38335 | 24.41589 | 23200 ft | 409 kts | 8° |
| 2026-05-07 19:24 | 36.41115 | 24.42374 | 23615 ft | 410 kts | 8° |
| 2026-05-07 19:24 | 36.43900 | 24.43162 | 23977 ft | 412 kts | 8° |
| 2026-05-07 19:25 | 36.46699 | 24.43954 | 24322 ft | 413 kts | 8° |
| 2026-05-07 19:25 | 36.49498 | 24.44747 | 24658 ft | 414 kts | 8° |
| 2026-05-07 19:25 | 36.52311 | 24.45546 | 25008 ft | 415 kts | 8° |
| 2026-05-07 19:25 | 36.55131 | 24.46348 | 25299 ft | 417 kts | 7° |
| 2026-05-07 19:26 | 36.57961 | 24.47153 | 25601 ft | 419 kts | 7° |
| 2026-05-07 19:26 | 36.60808 | 24.47967 | 25916 ft | 420 kts | 7° |
| 2026-05-07 19:26 | 36.63659 | 24.48784 | 26234 ft | 421 kts | 7° |
| 2026-05-07 19:26 | 36.66520 | 24.49602 | 26540 ft | 422 kts | 6° |
| 2026-05-07 19:27 | 36.69386 | 24.50420 | 26835 ft | 424 kts | 6° |
| 2026-05-07 19:27 | 36.72265 | 24.51177 | 27154 ft | 421 kts | 1° |
| 2026-05-07 19:27 | 36.75167 | 24.51418 | 27443 ft | 415 kts | 352° |
| 2026-05-07 19:27 | 36.78017 | 24.51057 | 27717 ft | 410 kts | 343° |
| 2026-05-07 19:28 | 36.80801 | 24.50298 | 28004 ft | 410 kts | 342° |
| 2026-05-07 19:28 | 36.83585 | 24.49535 | 28309 ft | 410 kts | 342° |
| 2026-05-07 19:28 | 36.86376 | 24.48783 | 28590 ft | 411 kts | 342° |
| 2026-05-07 19:28 | 36.89178 | 24.48033 | 28876 ft | 412 kts | 342° |
| 2026-05-07 19:29 | 36.91977 | 24.47281 | 29166 ft | 412 kts | 342° |
| 2026-05-07 19:29 | 36.94779 | 24.46523 | 29456 ft | 413 kts | 342° |
| 2026-05-07 19:29 | 36.97589 | 24.45758 | 29762 ft | 413 kts | 342° |
| 2026-05-07 19:29 | 37.00406 | 24.44992 | 30032 ft | 414 kts | 342° |
| 2026-05-07 19:30 | 37.03208 | 24.44231 | 30348 ft | 412 kts | 342° |
| 2026-05-07 19:30 | 37.05056 | 24.43731 | 30573 ft | 410 kts | 341° |
| 2026-05-07 19:30 | 37.07836 | 24.42974 | 30871 ft | 408 kts | 341° |
| 2026-05-07 19:30 | 37.10608 | 24.42216 | 31189 ft | 407 kts | 341° |
| 2026-05-07 19:31 | 37.13363 | 24.41457 | 31521 ft | 405 kts | 341° |
| 2026-05-07 19:31 | 37.16104 | 24.40699 | 31858 ft | 403 kts | 341° |
| 2026-05-07 19:31 | 37.18839 | 24.39947 | 32184 ft | 401 kts | 341° |
| 2026-05-07 19:31 | 37.21558 | 24.39201 | 32495 ft | 400 kts | 341° |
| 2026-05-07 19:32 | 37.24271 | 24.38458 | 32786 ft | 399 kts | 340° |
| 2026-05-07 19:32 | 37.26982 | 24.37719 | 33039 ft | 399 kts | 340° |
| 2026-05-07 19:32 | 37.29696 | 24.36981 | 33307 ft | 399 kts | 340° |
| 2026-05-07 19:32 | 37.32446 | 24.36236 | 33614 ft | 399 kts | 340° |
| 2026-05-07 19:33 | 37.35155 | 24.35506 | 33947 ft | 396 kts | 340° |
| 2026-05-07 19:33 | 37.37847 | 24.34774 | 34117 ft | 395 kts | 340° |
| 2026-05-07 19:33 | 37.43158 | 24.33332 | 34163 ft | 388 kts | 340° |
| 2026-05-07 19:34 | 37.48441 | 24.31882 | 34145 ft | 389 kts | 340° |
| 2026-05-07 19:34 | 37.53735 | 24.30428 | 34145 ft | 389 kts | 340° |
| 2026-05-07 19:35 | 37.58903 | 24.28582 | 34145 ft | 384 kts | 334° |
| 2026-05-07 19:35 | 37.63986 | 24.26492 | 34146 ft | 384 kts | 334° |
| 2026-05-07 19:36 | 37.69068 | 24.24401 | 34163 ft | 384 kts | 334° |
| 2026-05-07 19:36 | 37.74140 | 24.22309 | 34164 ft | 383 kts | 334° |
| 2026-05-07 19:37 | 37.79194 | 24.20213 | 34155 ft | 382 kts | 334° |
| 2026-05-07 19:37 | 37.84252 | 24.18121 | 34151 ft | 382 kts | 334° |
| 2026-05-07 19:38 | 37.89311 | 24.16027 | 34158 ft | 383 kts | 334° |
| 2026-05-07 19:38 | 37.94377 | 24.13913 | 34167 ft | 383 kts | 334° |
| 2026-05-07 19:39 | 37.99439 | 24.11802 | 34152 ft | 383 kts | 334° |
| 2026-05-07 19:39 | 38.04485 | 24.09718 | 34133 ft | 381 kts | 334° |
| 2026-05-07 19:40 | 38.09533 | 24.07628 | 34132 ft | 382 kts | 334° |
| 2026-05-07 19:40 | 38.14595 | 24.05514 | 34106 ft | 384 kts | 334° |
| 2026-05-07 19:41 | 38.19670 | 24.03389 | 34104 ft | 385 kts | 334° |
| 2026-05-07 19:41 | 38.24732 | 24.01260 | 34111 ft | 386 kts | 334° |
| 2026-05-07 19:42 | 38.29882 | 23.99094 | 34134 ft | 387 kts | 334° |
| 2026-05-07 19:42 | 38.34952 | 23.96970 | 34136 ft | 386 kts | 334° |
| 2026-05-07 19:43 | 38.40048 | 23.94828 | 34152 ft | 385 kts | 334° |
| 2026-05-07 19:43 | 38.45137 | 23.92682 | 34140 ft | 385 kts | 334° |
| 2026-05-07 19:44 | 38.50213 | 23.90538 | 34120 ft | 384 kts | 334° |
| 2026-05-07 19:44 | 38.55293 | 23.88396 | 34116 ft | 385 kts | 334° |
| 2026-05-07 19:45 | 38.60368 | 23.86250 | 34117 ft | 384 kts | 334° |
| 2026-05-07 19:45 | 38.65432 | 23.84103 | 34124 ft | 384 kts | 334° |
| 2026-05-07 19:46 | 38.70509 | 23.81950 | 34121 ft | 385 kts | 334° |
| 2026-05-07 19:46 | 38.75593 | 23.79784 | 34115 ft | 385 kts | 334° |
| 2026-05-07 19:47 | 38.80681 | 23.77618 | 34120 ft | 386 kts | 334° |
| 2026-05-07 19:47 | 38.85772 | 23.75451 | 34134 ft | 385 kts | 333° |
| 2026-05-07 19:48 | 38.90859 | 23.73283 | 34114 ft | 386 kts | 333° |
| 2026-05-07 19:48 | 38.95956 | 23.71107 | 34104 ft | 386 kts | 333° |
| 2026-05-07 19:49 | 39.01043 | 23.68921 | 34088 ft | 385 kts | 333° |
| 2026-05-07 19:49 | 39.06139 | 23.66732 | 34075 ft | 389 kts | 333° |
| 2026-05-07 19:50 | 39.11259 | 23.64543 | 34089 ft | 387 kts | 333° |
| 2026-05-07 19:50 | 39.16371 | 23.62347 | 34085 ft | 390 kts | 333° |
| 2026-05-07 19:51 | 39.21469 | 23.60048 | 34073 ft | 386 kts | 331° |
| 2026-05-07 19:51 | 39.26479 | 23.57612 | 34072 ft | 385 kts | 330° |
| 2026-05-07 19:52 | 39.31525 | 23.55141 | 34094 ft | 385 kts | 331° |
| 2026-05-07 19:52 | 39.36507 | 23.52720 | 34098 ft | 385 kts | 331° |
| 2026-05-07 19:53 | 39.41536 | 23.50288 | 34117 ft | 386 kts | 331° |
| 2026-05-07 19:53 | 39.46557 | 23.47862 | 34120 ft | 385 kts | 331° |
| 2026-05-07 19:54 | 39.51583 | 23.45433 | 34110 ft | 387 kts | 331° |
| 2026-05-07 19:54 | 39.56619 | 23.42974 | 34146 ft | 386 kts | 331° |
| 2026-05-07 19:55 | 39.61639 | 23.40526 | 34141 ft | 385 kts | 330° |
| 2026-05-07 19:55 | 39.66652 | 23.38094 | 34132 ft | 385 kts | 331° |
| 2026-05-07 19:56 | 39.71674 | 23.35662 | 34117 ft | 386 kts | 331° |
| 2026-05-07 19:56 | 39.76699 | 23.33210 | 34117 ft | 385 kts | 330° |
| 2026-05-07 19:57 | 39.81730 | 23.30740 | 34130 ft | 383 kts | 330° |
| 2026-05-07 19:57 | 39.86668 | 23.28339 | 34114 ft | 382 kts | 330° |
| 2026-05-07 19:58 | 39.91641 | 23.25889 | 34112 ft | 383 kts | 329° |
| 2026-05-07 19:58 | 39.96663 | 23.23405 | 34113 ft | 384 kts | 329° |
| 2026-05-07 19:59 | 40.01661 | 23.20947 | 34134 ft | 384 kts | 330° |
| 2026-05-07 19:59 | 40.06661 | 23.18488 | 34131 ft | 383 kts | 329° |
| 2026-05-07 20:00 | 40.11609 | 23.16051 | 34114 ft | 382 kts | 329° |
| 2026-05-07 20:00 | 40.16604 | 23.13573 | 34112 ft | 381 kts | 329° |
| 2026-05-07 20:01 | 40.21573 | 23.11117 | 34119 ft | 382 kts | 329° |
| 2026-05-07 20:01 | 40.26503 | 23.08677 | 34110 ft | 382 kts | 329° |
| 2026-05-07 20:02 | 40.31471 | 23.06209 | 34096 ft | 382 kts | 329° |
| 2026-05-07 20:02 | 40.36496 | 23.03708 | 34092 ft | 384 kts | 329° |
| 2026-05-07 20:03 | 40.41502 | 23.01215 | 34098 ft | 385 kts | 329° |
| 2026-05-07 20:03 | 40.46424 | 22.98622 | 34098 ft | 378 kts | 323° |
| 2026-05-07 20:04 | 40.51058 | 22.95385 | 34095 ft | 377 kts | 323° |
| 2026-05-07 20:04 | 40.55679 | 22.92147 | 34095 ft | 377 kts | 323° |
| 2026-05-07 20:05 | 40.60301 | 22.88900 | 34099 ft | 376 kts | 323° |
| 2026-05-07 20:05 | 40.64923 | 22.85655 | 34096 ft | 376 kts | 323° |
| 2026-05-07 20:06 | 40.69542 | 22.82414 | 34085 ft | 377 kts | 323° |
| 2026-05-07 20:06 | 40.74176 | 22.79162 | 34104 ft | 377 kts | 323° |
| 2026-05-07 20:07 | 40.78810 | 22.75898 | 34082 ft | 378 kts | 323° |
| 2026-05-07 20:07 | 40.83464 | 22.72600 | 34082 ft | 380 kts | 323° |
| 2026-05-07 20:08 | 40.88165 | 22.69270 | 34090 ft | 382 kts | 323° |
| 2026-05-07 20:08 | 40.92855 | 22.65955 | 34094 ft | 383 kts | 323° |
| 2026-05-07 20:09 | 40.97516 | 22.62652 | 34107 ft | 383 kts | 323° |
| 2026-05-07 20:10 | 41.04557 | 22.57651 | 34107 ft | 384 kts | 323° |
| 2026-05-07 20:10 | 41.09254 | 22.54294 | 34107 ft | 384 kts | 323° |
| 2026-05-07 20:11 | 41.13337 | 22.51757 | 34108 ft | 395 kts | 333° |
| 2026-05-07 20:11 | 41.19727 | 22.50107 | 34126 ft | 405 kts | 340° |
| 2026-05-07 20:12 | 41.24375 | 22.49057 | 34117 ft | 404 kts | 340° |
| 2026-05-07 20:12 | 41.29919 | 22.47794 | 34116 ft | 404 kts | 340° |
| 2026-05-07 20:13 | 41.35463 | 22.46521 | 34110 ft | 404 kts | 340° |
| 2026-05-07 20:13 | 41.41009 | 22.45242 | 34127 ft | 405 kts | 340° |
| 2026-05-07 20:14 | 41.46561 | 22.43968 | 34110 ft | 405 kts | 340° |
| 2026-05-07 20:14 | 41.52120 | 22.42690 | 34103 ft | 406 kts | 340° |
| 2026-05-07 20:15 | 41.57656 | 22.41413 | 34105 ft | 407 kts | 340° |
| 2026-05-07 20:15 | 41.63237 | 22.40120 | 34118 ft | 407 kts | 341° |
| 2026-05-07 20:16 | 41.68866 | 22.38812 | 34104 ft | 408 kts | 341° |
| 2026-05-07 20:16 | 41.74424 | 22.37520 | 34102 ft | 409 kts | 341° |
| 2026-05-07 20:17 | 41.80032 | 22.36218 | 34136 ft | 409 kts | 341° |
| 2026-05-07 20:17 | 41.85656 | 22.34912 | 34112 ft | 411 kts | 342° |
| 2026-05-07 20:18 | 41.91292 | 22.33598 | 34103 ft | 412 kts | 342° |
| 2026-05-07 20:18 | 41.96949 | 22.32271 | 34099 ft | 413 kts | 342° |
| 2026-05-07 20:19 | 42.02612 | 22.30944 | 34120 ft | 414 kts | 342° |
| 2026-05-07 20:19 | 42.08287 | 22.29609 | 34110 ft | 414 kts | 342° |
| 2026-05-07 20:20 | 42.13970 | 22.28272 | 34111 ft | 415 kts | 342° |
| 2026-05-07 20:20 | 42.19667 | 22.26941 | 34113 ft | 415 kts | 343° |
| 2026-05-07 20:21 | 42.25364 | 22.25596 | 34126 ft | 416 kts | 343° |
| 2026-05-07 20:21 | 42.31042 | 22.24143 | 34118 ft | 412 kts | 338° |
| 2026-05-07 20:22 | 42.36456 | 22.21617 | 34119 ft | 409 kts | 334° |
| 2026-05-07 20:22 | 42.41776 | 22.19059 | 34123 ft | 409 kts | 334° |
| 2026-05-07 20:23 | 42.47145 | 22.16492 | 34116 ft | 410 kts | 334° |
| 2026-05-07 20:23 | 42.52528 | 22.13906 | 34099 ft | 411 kts | 334° |
| 2026-05-07 20:24 | 42.57919 | 22.11317 | 34098 ft | 411 kts | 334° |
| 2026-05-07 20:24 | 42.63318 | 22.08719 | 34089 ft | 412 kts | 334° |
| 2026-05-07 20:25 | 42.68716 | 22.06110 | 34093 ft | 412 kts | 334° |
| 2026-05-07 20:25 | 42.74111 | 22.03496 | 34093 ft | 411 kts | 334° |
| 2026-05-07 20:26 | 42.79503 | 22.00880 | 34095 ft | 412 kts | 334° |
| 2026-05-07 20:26 | 42.84896 | 21.98253 | 34100 ft | 412 kts | 334° |
| 2026-05-07 20:27 | 42.90303 | 21.95622 | 34071 ft | 413 kts | 334° |
| 2026-05-07 20:27 | 42.95725 | 21.92983 | 34066 ft | 414 kts | 334° |
| 2026-05-07 20:28 | 43.01152 | 21.90330 | 34067 ft | 414 kts | 334° |
| 2026-05-07 20:28 | 43.06588 | 21.87676 | 34075 ft | 415 kts | 334° |
| 2026-05-07 20:29 | 43.12038 | 21.85002 | 34054 ft | 417 kts | 334° |
| 2026-05-07 20:29 | 43.17521 | 21.82308 | 34053 ft | 419 kts | 334° |
| 2026-05-07 20:30 | 43.23024 | 21.79600 | 34056 ft | 421 kts | 334° |
| 2026-05-07 20:30 | 43.28542 | 21.76887 | 34069 ft | 421 kts | 335° |
| 2026-05-07 20:31 | 43.34072 | 21.74159 | 34064 ft | 423 kts | 335° |
| 2026-05-07 20:31 | 43.39623 | 21.71408 | 34057 ft | 425 kts | 335° |
| 2026-05-07 20:32 | 43.45188 | 21.68646 | 34062 ft | 425 kts | 335° |
| 2026-05-07 20:32 | 43.50758 | 21.65885 | 34059 ft | 426 kts | 335° |
| 2026-05-07 20:33 | 43.56343 | 21.63101 | 34054 ft | 427 kts | 335° |
| 2026-05-07 20:33 | 43.61941 | 21.60304 | 34042 ft | 428 kts | 335° |
| 2026-05-07 20:34 | 43.67549 | 21.57509 | 34045 ft | 429 kts | 335° |
| 2026-05-07 20:34 | 43.73169 | 21.54700 | 34051 ft | 430 kts | 335° |
| 2026-05-07 20:35 | 43.78797 | 21.51868 | 34046 ft | 431 kts | 335° |
| 2026-05-07 20:35 | 43.84436 | 21.49021 | 34046 ft | 432 kts | 335° |
| 2026-05-07 20:36 | 43.90082 | 21.46172 | 34045 ft | 432 kts | 335° |
| 2026-05-07 20:36 | 43.95741 | 21.43318 | 34059 ft | 433 kts | 335° |
| 2026-05-07 20:37 | 44.01405 | 21.40455 | 34052 ft | 433 kts | 335° |
| 2026-05-07 20:37 | 44.07032 | 21.37598 | 34050 ft | 433 kts | 335° |
| 2026-05-07 20:38 | 44.12727 | 21.34704 | 34045 ft | 433 kts | 335° |
| 2026-05-07 20:38 | 44.18394 | 21.31822 | 34054 ft | 434 kts | 336° |
| 2026-05-07 20:39 | 44.24064 | 21.28937 | 34052 ft | 434 kts | 335° |
| 2026-05-07 20:39 | 44.29693 | 21.26062 | 34044 ft | 434 kts | 335° |
| 2026-05-07 20:40 | 44.35329 | 21.23061 | 34035 ft | 433 kts | 333° |
| 2026-05-07 20:40 | 44.40846 | 21.19706 | 34044 ft | 432 kts | 331° |
| 2026-05-07 20:41 | 44.46338 | 21.16247 | 34033 ft | 433 kts | 331° |
| 2026-05-07 20:41 | 44.51864 | 21.12848 | 34041 ft | 434 kts | 331° |
| 2026-05-07 20:42 | 44.57411 | 21.09484 | 34043 ft | 434 kts | 331° |
| 2026-05-07 20:42 | 44.62962 | 21.06118 | 34045 ft | 435 kts | 332° |
| 2026-05-07 20:43 | 44.68511 | 21.02719 | 34039 ft | 435 kts | 331° |
| 2026-05-07 20:43 | 44.74058 | 20.99300 | 34042 ft | 436 kts | 331° |
| 2026-05-07 20:44 | 44.79612 | 20.95878 | 34038 ft | 436 kts | 331° |
| 2026-05-07 20:44 | 44.85170 | 20.92461 | 34044 ft | 436 kts | 331° |
| 2026-05-07 20:45 | 44.90733 | 20.89024 | 34040 ft | 436 kts | 331° |
| 2026-05-07 20:45 | 44.96295 | 20.85587 | 34035 ft | 436 kts | 331° |
| 2026-05-07 20:46 | 45.01852 | 20.82136 | 34030 ft | 436 kts | 331° |
| 2026-05-07 20:46 | 45.07418 | 20.78683 | 34039 ft | 437 kts | 331° |
| 2026-05-07 20:47 | 45.12976 | 20.75220 | 34042 ft | 437 kts | 331° |
| 2026-05-07 20:47 | 45.18543 | 20.71747 | 34034 ft | 437 kts | 331° |
| 2026-05-07 20:48 | 45.24113 | 20.68263 | 34039 ft | 438 kts | 331° |
| 2026-05-07 20:48 | 45.29683 | 20.64774 | 34046 ft | 438 kts | 331° |
| 2026-05-07 20:49 | 45.35263 | 20.61281 | 34034 ft | 438 kts | 331° |
| 2026-05-07 20:49 | 45.40844 | 20.57772 | 34043 ft | 439 kts | 331° |
| 2026-05-07 20:50 | 45.46427 | 20.54241 | 34032 ft | 439 kts | 331° |
| 2026-05-07 20:50 | 45.52008 | 20.50704 | 34040 ft | 439 kts | 331° |
| 2026-05-07 20:51 | 45.57604 | 20.47154 | 34035 ft | 440 kts | 331° |
| 2026-05-07 20:51 | 45.63210 | 20.43601 | 34029 ft | 441 kts | 331° |
| 2026-05-07 20:52 | 45.68817 | 20.40040 | 34024 ft | 441 kts | 331° |
| 2026-05-07 20:52 | 45.74420 | 20.36471 | 34045 ft | 441 kts | 331° |
| 2026-05-07 20:53 | 45.79084 | 20.33492 | 34024 ft | 441 kts | 331° |
| 2026-05-07 20:53 | 45.84697 | 20.29896 | 34018 ft | 442 kts | 330° |
| 2026-05-07 20:54 | 45.90314 | 20.26289 | 34021 ft | 443 kts | 330° |
| 2026-05-07 20:54 | 45.95943 | 20.22672 | 34025 ft | 443 kts | 330° |
| 2026-05-07 20:55 | 46.01573 | 20.19044 | 34052 ft | 443 kts | 330° |
| 2026-05-07 20:55 | 46.07200 | 20.15397 | 34036 ft | 444 kts | 330° |
| 2026-05-07 20:56 | 46.12845 | 20.11734 | 34026 ft | 445 kts | 330° |
| 2026-05-07 20:56 | 46.18590 | 20.08356 | 34021 ft | 449 kts | 336° |
| 2026-05-07 20:57 | 46.24546 | 20.05466 | 34035 ft | 449 kts | 336° |
| 2026-05-07 20:57 | 46.30422 | 20.02590 | 34031 ft | 449 kts | 336° |
| 2026-05-07 20:58 | 46.36377 | 19.99657 | 34028 ft | 449 kts | 336° |
| 2026-05-07 20:58 | 46.42261 | 19.96758 | 34036 ft | 450 kts | 336° |
| 2026-05-07 20:59 | 46.48183 | 19.93834 | 34037 ft | 450 kts | 336° |
| 2026-05-07 20:59 | 46.54110 | 19.90902 | 34029 ft | 450 kts | 336° |
| 2026-05-07 21:00 | 46.60033 | 19.87968 | 34033 ft | 450 kts | 336° |
| 2026-05-07 21:00 | 46.65963 | 19.85029 | 34033 ft | 450 kts | 336° |
| 2026-05-07 21:01 | 46.71898 | 19.82086 | 34066 ft | 451 kts | 335° |
| 2026-05-07 21:01 | 46.77838 | 19.79114 | 34045 ft | 452 kts | 335° |
| 2026-05-07 21:02 | 46.83787 | 19.76132 | 34037 ft | 453 kts | 335° |
| 2026-05-07 21:02 | 46.89753 | 19.73149 | 34038 ft | 453 kts | 335° |
| 2026-05-07 21:03 | 46.95722 | 19.70152 | 34047 ft | 454 kts | 335° |
| 2026-05-07 21:03 | 47.01696 | 19.67148 | 34040 ft | 454 kts | 335° |
| 2026-05-07 21:04 | 47.07667 | 19.64134 | 34068 ft | 454 kts | 335° |
| 2026-05-07 21:04 | 47.13639 | 19.61106 | 34057 ft | 454 kts | 335° |
| 2026-05-07 21:05 | 47.19649 | 19.58049 | 34214 ft | 460 kts | 335° |
| 2026-05-07 21:05 | 47.22677 | 19.56511 | 34447 ft | 461 kts | 335° |
| 2026-05-07 21:05 | 47.25704 | 19.54974 | 34705 ft | 461 kts | 335° |
| 2026-05-07 21:05 | 47.28732 | 19.53438 | 34958 ft | 460 kts | 335° |
| 2026-05-07 21:06 | 47.31756 | 19.51899 | 35213 ft | 459 kts | 335° |
| 2026-05-07 21:06 | 47.34775 | 19.50347 | 35448 ft | 458 kts | 333° |
| 2026-05-07 21:06 | 47.37554 | 19.48195 | 35603 ft | 447 kts | 318° |
| 2026-05-07 21:06 | 47.40047 | 19.45458 | 35777 ft | 446 kts | 316° |
| 2026-05-07 21:07 | 47.42500 | 19.42662 | 35889 ft | 445 kts | 316° |
| 2026-05-07 21:07 | 47.44945 | 19.39865 | 36028 ft | 445 kts | 316° |
| 2026-05-07 21:07 | 47.47408 | 19.37094 | 36060 ft | 446 kts | 320° |
| 2026-05-07 21:07 | 47.50200 | 19.35003 | 36058 ft | 456 kts | 335° |
| 2026-05-07 21:08 | 47.53224 | 19.33556 | 36059 ft | 458 kts | 336° |
| 2026-05-07 21:08 | 47.59308 | 19.30761 | 36055 ft | 458 kts | 337° |
| 2026-05-07 21:09 | 47.65407 | 19.27988 | 36055 ft | 458 kts | 337° |
| 2026-05-07 21:09 | 47.71497 | 19.25188 | 36079 ft | 458 kts | 336° |
| 2026-05-07 21:10 | 47.77588 | 19.22362 | 36055 ft | 459 kts | 336° |
| 2026-05-07 21:10 | 47.83676 | 19.19530 | 36046 ft | 459 kts | 336° |
| 2026-05-07 21:11 | 47.89776 | 19.16682 | 36048 ft | 460 kts | 336° |
| 2026-05-07 21:11 | 47.98945 | 19.12410 | 36045 ft | 461 kts | 336° |
| 2026-05-07 21:12 | 48.05068 | 19.09542 | 36049 ft | 461 kts | 337° |
| 2026-05-07 21:12 | 48.11189 | 19.06672 | 36077 ft | 462 kts | 337° |
| 2026-05-07 21:13 | 48.17328 | 19.03776 | 36062 ft | 463 kts | 337° |
| 2026-05-07 21:13 | 48.23483 | 19.00865 | 36049 ft | 464 kts | 337° |
| 2026-05-07 21:14 | 48.29650 | 18.97939 | 36044 ft | 465 kts | 337° |
| 2026-05-07 21:14 | 48.35829 | 18.95012 | 36045 ft | 465 kts | 337° |
| 2026-05-07 21:15 | 48.42007 | 18.92079 | 36049 ft | 466 kts | 337° |
| 2026-05-07 21:15 | 48.48187 | 18.89130 | 36077 ft | 466 kts | 337° |
| 2026-05-07 21:16 | 48.54333 | 18.86188 | 36069 ft | 467 kts | 338° |
| 2026-05-07 21:16 | 48.60527 | 18.83222 | 36062 ft | 467 kts | 338° |
| 2026-05-07 21:17 | 48.66721 | 18.80255 | 36059 ft | 467 kts | 338° |
| 2026-05-07 21:17 | 48.72917 | 18.77261 | 36045 ft | 468 kts | 337° |
| 2026-05-07 21:18 | 48.79131 | 18.74265 | 36044 ft | 469 kts | 338° |
| 2026-05-07 21:18 | 48.85352 | 18.71259 | 36045 ft | 469 kts | 337° |
| 2026-05-07 21:19 | 48.91566 | 18.68233 | 36082 ft | 469 kts | 338° |
| 2026-05-07 21:19 | 48.97774 | 18.65205 | 36069 ft | 469 kts | 338° |
| 2026-05-07 21:20 | 49.03989 | 18.62174 | 36058 ft | 469 kts | 338° |
| 2026-05-07 21:20 | 49.10204 | 18.59138 | 36049 ft | 469 kts | 338° |
| 2026-05-07 21:21 | 49.16416 | 18.56081 | 36050 ft | 469 kts | 338° |
| 2026-05-07 21:21 | 49.22636 | 18.53014 | 36024 ft | 470 kts | 338° |
| 2026-05-07 21:22 | 49.28870 | 18.49941 | 36051 ft | 471 kts | 339° |
| 2026-05-07 21:22 | 49.35096 | 18.46870 | 36056 ft | 470 kts | 339° |
| 2026-05-07 21:23 | 49.41201 | 18.43428 | 36054 ft | 465 kts | 330° |
| 2026-05-07 21:23 | 49.47042 | 18.39152 | 36037 ft | 465 kts | 330° |
| 2026-05-07 21:24 | 49.52892 | 18.34884 | 36045 ft | 466 kts | 330° |
| 2026-05-07 21:24 | 49.58751 | 18.30615 | 36046 ft | 466 kts | 330° |
| 2026-05-07 21:25 | 49.64611 | 18.26328 | 36074 ft | 466 kts | 331° |
| 2026-05-07 21:25 | 49.70468 | 18.22019 | 36071 ft | 466 kts | 331° |
| 2026-05-07 21:26 | 49.76318 | 18.17698 | 36067 ft | 466 kts | 331° |
| 2026-05-07 21:26 | 49.82170 | 18.13375 | 36062 ft | 466 kts | 331° |
| 2026-05-07 21:27 | 49.88023 | 18.09038 | 36060 ft | 466 kts | 330° |
| 2026-05-07 21:27 | 49.93902 | 18.04797 | 36059 ft | 468 kts | 336° |
| 2026-05-07 21:28 | 50.00028 | 18.01303 | 36049 ft | 469 kts | 336° |
| 2026-05-07 21:28 | 50.06139 | 17.97796 | 36049 ft | 469 kts | 336° |
| 2026-05-07 21:29 | 50.12259 | 17.94268 | 36047 ft | 469 kts | 336° |
| 2026-05-07 21:29 | 50.18378 | 17.90723 | 36047 ft | 469 kts | 336° |
| 2026-05-07 21:30 | 50.24499 | 17.87172 | 36048 ft | 469 kts | 336° |
| 2026-05-07 21:30 | 50.30619 | 17.83608 | 36051 ft | 470 kts | 336° |
| 2026-05-07 21:31 | 50.36747 | 17.80040 | 36079 ft | 470 kts | 336° |
| 2026-05-07 21:31 | 50.42859 | 17.76464 | 36079 ft | 469 kts | 336° |
| 2026-05-07 21:32 | 50.48970 | 17.72883 | 36073 ft | 469 kts | 336° |
| 2026-05-07 21:32 | 50.55088 | 17.69293 | 36072 ft | 469 kts | 336° |
| 2026-05-07 21:33 | 50.61202 | 17.65690 | 36068 ft | 469 kts | 336° |
| 2026-05-07 21:33 | 50.67324 | 17.62068 | 36071 ft | 470 kts | 336° |
| 2026-05-07 21:34 | 50.73442 | 17.58438 | 36068 ft | 470 kts | 336° |
| 2026-05-07 21:34 | 50.79563 | 17.54801 | 36074 ft | 470 kts | 336° |
| 2026-05-07 21:35 | 50.84641 | 17.51752 | 36072 ft | 470 kts | 336° |
| 2026-05-07 21:35 | 50.90766 | 17.48078 | 36077 ft | 471 kts | 336° |
| 2026-05-07 21:36 | 50.96892 | 17.44406 | 36076 ft | 471 kts | 336° |
| 2026-05-07 21:36 | 51.03021 | 17.40737 | 36079 ft | 471 kts | 336° |
| 2026-05-07 21:37 | 51.09149 | 17.37057 | 36076 ft | 471 kts | 336° |
| 2026-05-07 21:37 | 51.15271 | 17.33349 | 36099 ft | 471 kts | 336° |
| 2026-05-07 21:38 | 51.21394 | 17.29624 | 36104 ft | 470 kts | 336° |
| 2026-05-07 21:38 | 51.27508 | 17.25909 | 36104 ft | 470 kts | 336° |
| 2026-05-07 21:39 | 51.33610 | 17.22194 | 36105 ft | 469 kts | 336° |
| 2026-05-07 21:39 | 51.39704 | 17.18467 | 36100 ft | 469 kts | 336° |
| 2026-05-07 21:40 | 51.45790 | 17.14739 | 36097 ft | 468 kts | 336° |
| 2026-05-07 21:40 | 51.51860 | 17.11011 | 36090 ft | 467 kts | 336° |
| 2026-05-07 21:41 | 51.57931 | 17.07267 | 36112 ft | 467 kts | 336° |
| 2026-05-07 21:41 | 51.63994 | 17.03510 | 36114 ft | 466 kts | 336° |
| 2026-05-07 21:42 | 51.70029 | 16.99757 | 36110 ft | 465 kts | 336° |
| 2026-05-07 21:42 | 51.76060 | 16.96008 | 36107 ft | 464 kts | 336° |
| 2026-05-07 21:43 | 51.82087 | 16.92253 | 36103 ft | 464 kts | 336° |
| 2026-05-07 21:43 | 51.88112 | 16.88479 | 36101 ft | 465 kts | 336° |
| 2026-05-07 21:44 | 51.94138 | 16.84706 | 36099 ft | 464 kts | 336° |
| 2026-05-07 21:44 | 52.00167 | 16.80924 | 36127 ft | 464 kts | 336° |
| 2026-05-07 21:45 | 52.06174 | 16.77122 | 36129 ft | 463 kts | 336° |
| 2026-05-07 21:45 | 52.12165 | 16.73310 | 36127 ft | 462 kts | 336° |
| 2026-05-07 21:46 | 52.18152 | 16.69539 | 36125 ft | 461 kts | 337° |
| 2026-05-07 21:46 | 52.24153 | 16.65827 | 36122 ft | 461 kts | 337° |
| 2026-05-07 21:47 | 52.30148 | 16.62109 | 36118 ft | 461 kts | 336° |
| 2026-05-07 21:47 | 52.36130 | 16.58354 | 36116 ft | 461 kts | 336° |
| 2026-05-07 21:48 | 52.42110 | 16.54576 | 36133 ft | 460 kts | 337° |
| 2026-05-07 21:48 | 52.48077 | 16.50806 | 36125 ft | 459 kts | 337° |
| 2026-05-07 21:49 | 52.54038 | 16.47035 | 36123 ft | 459 kts | 337° |
| 2026-05-07 21:49 | 52.59994 | 16.43256 | 36121 ft | 459 kts | 337° |
| 2026-05-07 21:50 | 52.65949 | 16.39455 | 36119 ft | 459 kts | 336° |
| 2026-05-07 21:50 | 52.71904 | 16.35649 | 36120 ft | 459 kts | 336° |
| 2026-05-07 21:51 | 52.77853 | 16.31836 | 36120 ft | 459 kts | 336° |
| 2026-05-07 21:51 | 52.83796 | 16.28017 | 36138 ft | 458 kts | 337° |
| 2026-05-07 21:52 | 52.89728 | 16.24186 | 36138 ft | 457 kts | 337° |
| 2026-05-07 21:52 | 52.95654 | 16.20357 | 36140 ft | 457 kts | 337° |
| 2026-05-07 21:53 | 53.01576 | 16.16528 | 36137 ft | 457 kts | 337° |
| 2026-05-07 21:53 | 53.07495 | 16.12678 | 36137 ft | 457 kts | 337° |
| 2026-05-07 21:54 | 53.13403 | 16.08818 | 36141 ft | 456 kts | 337° |
| 2026-05-07 21:54 | 53.19316 | 16.04959 | 36140 ft | 456 kts | 337° |
| 2026-05-07 21:55 | 53.25226 | 16.01087 | 36153 ft | 456 kts | 337° |
| 2026-05-07 21:55 | 53.31118 | 15.97203 | 35715 ft | 454 kts | 337° |
| 2026-05-07 21:56 | 53.34061 | 15.95253 | 34956 ft | 457 kts | 337° |
| 2026-05-07 21:56 | 53.37052 | 15.93271 | 34003 ft | 466 kts | 337° |
| 2026-05-07 21:56 | 53.40076 | 15.91272 | 33114 ft | 468 kts | 338° |
| 2026-05-07 21:56 | 53.43081 | 15.89292 | 32640 ft | 460 kts | 338° |
| 2026-05-07 21:57 | 53.46049 | 15.87332 | 32064 ft | 457 kts | 338° |
| 2026-05-07 21:57 | 53.48993 | 15.85380 | 31503 ft | 453 kts | 338° |
| 2026-05-07 21:57 | 53.51915 | 15.83433 | 30946 ft | 450 kts | 338° |
| 2026-05-07 21:57 | 53.54802 | 15.81505 | 30488 ft | 444 kts | 338° |
| 2026-05-07 21:58 | 53.57666 | 15.79590 | 29973 ft | 439 kts | 339° |
| 2026-05-07 21:58 | 53.60465 | 15.77712 | 29377 ft | 430 kts | 339° |
| 2026-05-07 21:58 | 53.63244 | 15.75839 | 28722 ft | 428 kts | 339° |
| 2026-05-07 21:58 | 53.65983 | 15.73996 | 28213 ft | 422 kts | 339° |
| 2026-05-07 21:59 | 53.68691 | 15.72177 | 27707 ft | 416 kts | 339° |
| 2026-05-07 21:59 | 53.71331 | 15.70410 | 27213 ft | 410 kts | 338° |
| 2026-05-07 21:59 | 53.74002 | 15.68625 | 26724 ft | 404 kts | 339° |
| 2026-05-07 21:59 | 53.76562 | 15.66912 | 26250 ft | 397 kts | 339° |
| 2026-05-07 22:00 | 53.79112 | 15.65200 | 25809 ft | 391 kts | 339° |
| 2026-05-07 22:00 | 53.81623 | 15.63502 | 25364 ft | 387 kts | 339° |
| 2026-05-07 22:00 | 53.84106 | 15.61820 | 24918 ft | 382 kts | 339° |
| 2026-05-07 22:00 | 53.86563 | 15.60150 | 24496 ft | 378 kts | 339° |
| 2026-05-07 22:01 | 53.88992 | 15.58499 | 24071 ft | 375 kts | 339° |
| 2026-05-07 22:01 | 53.91401 | 15.56860 | 23615 ft | 371 kts | 339° |
| 2026-05-07 22:01 | 53.93785 | 15.55235 | 23153 ft | 367 kts | 339° |
| 2026-05-07 22:01 | 53.96143 | 15.53629 | 22734 ft | 363 kts | 339° |
| 2026-05-07 22:02 | 53.98472 | 15.52045 | 22309 ft | 358 kts | 339° |
| 2026-05-07 22:02 | 54.00775 | 15.50478 | 21885 ft | 355 kts | 339° |
| 2026-05-07 22:02 | 54.03056 | 15.48917 | 21463 ft | 352 kts | 339° |
| 2026-05-07 22:02 | 54.05313 | 15.47369 | 21040 ft | 349 kts | 339° |
| 2026-05-07 22:03 | 54.07557 | 15.45832 | 20612 ft | 346 kts | 339° |
| 2026-05-07 22:03 | 54.09782 | 15.44308 | 20196 ft | 343 kts | 339° |
| 2026-05-07 22:03 | 54.11987 | 15.42799 | 19774 ft | 341 kts | 339° |
| 2026-05-07 22:03 | 54.14181 | 15.41297 | 19356 ft | 338 kts | 339° |
| 2026-05-07 22:04 | 54.16361 | 15.39803 | 18942 ft | 337 kts | 339° |
| 2026-05-07 22:04 | 54.18530 | 15.38315 | 18525 ft | 335 kts | 339° |
| 2026-05-07 22:04 | 54.20682 | 15.36832 | 18077 ft | 333 kts | 339° |
| 2026-05-07 22:04 | 54.22816 | 15.35350 | 17670 ft | 329 kts | 339° |
| 2026-05-07 22:05 | 54.24929 | 15.33878 | 17270 ft | 326 kts | 338° |
| 2026-05-07 22:05 | 54.27023 | 15.32422 | 16879 ft | 323 kts | 339° |
| 2026-05-07 22:05 | 54.29100 | 15.30981 | 16491 ft | 321 kts | 339° |
| 2026-05-07 22:05 | 54.31160 | 15.29554 | 16113 ft | 318 kts | 339° |
| 2026-05-07 22:06 | 54.33207 | 15.28138 | 15728 ft | 316 kts | 339° |
| 2026-05-07 22:06 | 54.35238 | 15.26730 | 15347 ft | 314 kts | 339° |
| 2026-05-07 22:06 | 54.37257 | 15.25320 | 14966 ft | 312 kts | 339° |
| 2026-05-07 22:06 | 54.39263 | 15.23914 | 14588 ft | 311 kts | 339° |
| 2026-05-07 22:07 | 54.41262 | 15.22536 | 14210 ft | 309 kts | 340° |
| 2026-05-07 22:07 | 54.43264 | 15.21178 | 13811 ft | 309 kts | 340° |
| 2026-05-07 22:07 | 54.45253 | 15.19837 | 13411 ft | 306 kts | 340° |
| 2026-05-07 22:07 | 54.47230 | 15.18504 | 13033 ft | 304 kts | 340° |
| 2026-05-07 22:08 | 54.49188 | 15.17175 | 12652 ft | 302 kts | 339° |
| 2026-05-07 22:08 | 54.51137 | 15.15848 | 12276 ft | 300 kts | 340° |
| 2026-05-07 22:08 | 54.53068 | 15.14534 | 11893 ft | 298 kts | 340° |
| 2026-05-07 22:08 | 54.54992 | 15.13227 | 11514 ft | 296 kts | 340° |
| 2026-05-07 22:09 | 54.56904 | 15.11926 | 11133 ft | 295 kts | 340° |
| 2026-05-07 22:09 | 54.58808 | 15.10623 | 10748 ft | 294 kts | 340° |
| 2026-05-07 22:09 | 54.60700 | 15.09322 | 10377 ft | 292 kts | 340° |
| 2026-05-07 22:09 | 54.62576 | 15.08034 | 10203 ft | 288 kts | 340° |
| 2026-05-07 22:10 | 54.64445 | 15.06751 | 10096 ft | 289 kts | 340° |
| 2026-05-07 22:10 | 54.66314 | 15.05466 | 9951 ft | 289 kts | 340° |
| 2026-05-07 22:10 | 54.68199 | 15.04174 | 9495 ft | 292 kts | 340° |
| 2026-05-07 22:10 | 54.70067 | 15.02893 | 9174 ft | 287 kts | 341° |
| 2026-05-07 22:11 | 54.71915 | 15.01625 | 8777 ft | 285 kts | 341° |
| 2026-05-07 22:11 | 54.73752 | 15.00361 | 8395 ft | 282 kts | 341° |
| 2026-05-07 22:11 | 54.75569 | 14.99106 | 8032 ft | 280 kts | 341° |
| 2026-05-07 22:11 | 54.77370 | 14.97860 | 7676 ft | 277 kts | 342° |
| 2026-05-07 22:12 | 54.79148 | 14.96628 | 7319 ft | 274 kts | 342° |
| 2026-05-07 22:12 | 54.80931 | 14.95533 | 6955 ft | 268 kts | 352° |
| 2026-05-07 22:12 | 54.82751 | 14.95246 | 6602 ft | 260 kts | 7° |
| 2026-05-07 22:12 | 54.84500 | 14.95801 | 6213 ft | 253 kts | 21° |
| 2026-05-07 22:13 | 54.86149 | 14.96841 | 5773 ft | 250 kts | 22° |
| 2026-05-07 22:13 | 54.87778 | 14.97867 | 5156 ft | 249 kts | 22° |
| 2026-05-07 22:13 | 54.89403 | 14.98881 | 4544 ft | 248 kts | 22° |
| 2026-05-07 22:13 | 54.91003 | 14.99884 | 3953 ft | 247 kts | 22° |
| 2026-05-07 22:14 | 54.92613 | 15.00891 | 3434 ft | 247 kts | 22° |
| 2026-05-07 22:14 | 54.94191 | 15.01876 | 3295 ft | 236 kts | 22° |
| 2026-05-07 22:14 | 54.95704 | 15.02824 | 3168 ft | 225 kts | 21° |
| 2026-05-07 22:14 | 54.97142 | 15.03622 | 3047 ft | 211 kts | 11° |
| 2026-05-07 22:15 | 54.98556 | 15.03340 | 2916 ft | 202 kts | 340° |
| 2026-05-07 22:15 | 54.99628 | 15.01948 | 2811 ft | 188 kts | 312° |
| 2026-05-07 22:15 | 55.00226 | 14.99978 | 2648 ft | 179 kts | 297° |
| 2026-05-07 22:15 | 55.00722 | 14.98040 | 2574 ft | 172 kts | 297° |
| 2026-05-07 22:16 | 55.01208 | 14.96140 | 2423 ft | 170 kts | 296° |
| 2026-05-07 22:16 | 55.01686 | 14.94262 | 2217 ft | 169 kts | 296° |
| 2026-05-07 22:16 | 55.02160 | 14.92399 | 1985 ft | 168 kts | 296° |
| 2026-05-07 22:16 | 55.02630 | 14.90548 | 1770 ft | 164 kts | 296° |
| 2026-05-07 22:17 | 55.03080 | 14.88776 | 1549 ft | 154 kts | 296° |
| 2026-05-07 22:17 | 55.03502 | 14.87112 | 1331 ft | 147 kts | 296° |
| 2026-05-07 22:17 | 55.03912 | 14.85494 | 1116 ft | 145 kts | 296° |
| 2026-05-07 22:17 | 55.04317 | 14.83899 | 898 ft | 143 kts | 296° |
| 2026-05-07 22:18 | 55.04718 | 14.82325 | 707 ft | 142 kts | 295° |
| 2026-05-07 22:18 | 55.05508 | 14.79202 | 307 ft | 140 kts | 294° |
| 2026-05-07 22:18 | 55.05772 | 14.78158 | 199 ft | 139 kts | 294° |
| 2026-05-07 22:19 | 55.06154 | 14.76646 | 51 ft | 130 kts | 294° |
| 2026-05-07 22:19 | 55.06414 | 14.75618 | 50 ft | 50 kts | 294° |
| 2026-05-07 22:19 | 55.06492 | 14.75306 | 53 ft | 24 kts | 293° |
| 2026-05-07 22:19 | 55.06556 | 14.75047 | 52 ft | 23 kts | 293° |
| 2026-05-07 22:20 | 55.06629 | 14.74851 | 53 ft | 15 kts | 333° |
| 2026-05-07 22:20 | 55.06710 | 14.74846 | 53 ft | 11 kts | 2° |
| 2026-05-07 22:20 | 55.06775 | 14.74841 | 51 ft | 8 kts | 341° |
| 2026-05-07 22:20 | 55.06814 | 14.74780 | 50 ft | 7 kts | 309° |
| 2026-05-07 22:21 | 55.06846 | 14.74720 | 53 ft | 6 kts | 325° |
| 2026-05-07 22:21 | 55.06883 | 14.74722 | 53 ft | 5 kts | 23° |
| 2026-05-07 22:21 | 55.06903 | 14.74764 | 53 ft | 4 kts | 66° |
| 2026-05-07 22:21 | 55.06898 | 14.74799 | 50 ft | 3 kts | 118° |
| 2026-05-07 22:22 | 55.06888 | 14.74816 | 53 ft | 1 kts | 143° |
| 2026-05-07 22:22 | 55.06883 | 14.74818 | 53 ft | 0 kts | 158° |